createdAt,value
2018-05-04T00:01:31.636Z,3.60
2018-05-04T00:03:59.881Z,3.00
2018-05-04T00:06:27.365Z,2.90
2018-05-04T00:08:54.840Z,4.67
2018-05-04T00:11:22.292Z,3.57
2018-05-04T00:13:50.104Z,3.27
2018-05-04T00:16:17.557Z,3.40
2018-05-04T00:18:45.037Z,3.10
2018-05-04T00:21:12.502Z,3.93
2018-05-04T00:23:39.974Z,4.07
2018-05-04T00:26:07.428Z,2.70
2018-05-04T00:28:34.899Z,3.20
2018-05-04T00:31:02.363Z,2.80
2018-05-04T00:33:29.828Z,3.13
2018-05-04T00:35:57.276Z,2.90
2018-05-04T00:38:24.756Z,3.37
2018-05-04T00:40:52.989Z,2.57
2018-05-04T00:43:20.469Z,4.00
2018-05-04T00:45:47.931Z,3.20
2018-05-04T00:48:15.414Z,3.30
2018-05-04T00:50:43.642Z,3.53
2018-05-04T00:53:11.114Z,2.80
2018-05-04T00:55:38.583Z,2.70
2018-05-04T00:58:06.058Z,3.30
2018-05-04T01:00:33.526Z,2.60
2018-05-04T01:03:01.778Z,3.17
2018-05-04T01:05:29.237Z,3.40
2018-05-04T01:07:56.708Z,3.50
2018-05-04T01:10:24.955Z,3.10
2018-05-04T01:12:52.416Z,3.07
2018-05-04T01:15:20.666Z,2.57
2018-05-04T01:17:48.130Z,2.80
2018-05-04T01:20:15.615Z,3.00
2018-05-04T01:22:43.068Z,2.80
2018-05-04T01:25:10.631Z,2.90
2018-05-04T01:27:38.093Z,2.97
2018-05-04T01:30:05.565Z,2.73
2018-05-04T01:32:34.537Z,3.03
2018-05-04T01:35:02.015Z,3.00
2018-05-04T01:37:29.484Z,3.50
2018-05-04T01:39:57.727Z,3.80
2018-05-04T01:42:25.196Z,3.10
2018-05-04T01:44:52.673Z,3.60
2018-05-04T01:47:20.901Z,3.57
2018-05-04T01:49:48.378Z,3.77
2018-05-04T01:52:15.837Z,3.50
2018-05-04T01:54:43.325Z,3.90
2018-05-04T01:57:11.562Z,3.13
2018-05-04T01:59:39.045Z,3.00
2018-05-04T02:02:06.506Z,2.97
2018-05-04T02:04:33.985Z,3.70
2018-05-04T02:07:02.218Z,3.13
2018-05-04T02:09:29.702Z,4.33
2018-05-04T02:11:57.174Z,3.77
2018-05-04T02:14:25.422Z,3.13
2018-05-04T02:16:52.896Z,3.33
2018-05-04T02:19:20.362Z,3.93
2018-05-04T02:21:48.682Z,3.37
2018-05-04T02:24:16.153Z,3.57
2018-05-04T02:26:43.622Z,3.20
2018-05-04T02:29:11.093Z,5.40
2018-05-04T02:31:38.570Z,6.33
2018-05-04T02:34:06.814Z,5.07
2018-05-04T02:36:35.334Z,3.90
2018-05-04T02:39:03.587Z,3.80
2018-05-04T02:41:31.056Z,4.40
2018-05-04T02:43:58.535Z,3.20
2018-05-04T02:46:26.782Z,4.03
2018-05-04T02:48:54.265Z,3.60
2018-05-04T02:51:22.507Z,3.60
2018-05-04T02:53:49.975Z,3.50
2018-05-04T02:56:17.445Z,3.70
2018-05-04T02:58:44.909Z,2.90
2018-05-04T03:01:13.160Z,4.00
2018-05-04T03:03:40.628Z,3.47
2018-05-04T03:06:08.110Z,3.90
2018-05-04T03:08:36.338Z,4.10
2018-05-04T03:11:03.804Z,3.63
2018-05-04T03:13:31.275Z,3.53
2018-05-04T03:15:58.753Z,3.53
2018-05-04T03:18:26.990Z,4.13
2018-05-04T03:20:54.470Z,3.87
2018-05-04T03:23:21.929Z,4.50
2018-05-04T03:25:49.403Z,3.90
2018-05-04T03:28:17.635Z,4.10
2018-05-04T03:30:45.118Z,4.17
2018-05-04T03:33:12.586Z,4.77
2018-05-04T03:35:40.046Z,3.60
2018-05-04T03:38:07.514Z,4.33
2018-05-04T03:40:36.562Z,4.40
2018-05-04T03:43:04.035Z,3.53
2018-05-04T03:45:31.503Z,4.40
2018-05-04T03:47:58.963Z,4.63
2018-05-04T03:50:26.441Z,6.40
2018-05-04T03:52:54.668Z,5.20
2018-05-04T03:55:22.146Z,5.40
2018-05-04T03:58:01.511Z,5.20
2018-05-04T04:00:41.694Z,5.07
2018-05-04T04:03:21.084Z,5.10
2018-05-04T04:05:48.562Z,5.37
2018-05-04T04:08:16.786Z,5.90
2018-05-04T04:10:44.265Z,5.37
2018-05-04T04:13:11.726Z,6.30
2018-05-04T04:15:39.966Z,6.63
2018-05-04T04:18:07.434Z,6.97
2018-05-04T04:20:34.906Z,7.30
2018-05-04T04:23:02.366Z,5.73
2018-05-04T04:25:29.833Z,5.50
2018-05-04T04:27:57.305Z,7.60
2018-05-04T04:30:24.778Z,6.97
2018-05-04T04:32:53.005Z,6.47
2018-05-04T04:35:20.505Z,6.70
2018-05-04T04:37:47.978Z,6.63
2018-05-04T04:40:16.224Z,6.70
2018-05-04T04:42:43.686Z,7.73
2018-05-04T04:45:11.161Z,7.30
2018-05-04T04:47:38.626Z,7.50
2018-05-04T04:50:06.850Z,7.20
2018-05-04T04:52:34.325Z,7.20
2018-05-04T04:55:01.790Z,8.80
2018-05-04T04:57:29.297Z,7.90
2018-05-04T04:59:57.524Z,7.47
2018-05-04T05:02:25.008Z,8.77
2018-05-04T05:04:52.474Z,7.80
2018-05-04T05:07:20.720Z,8.83
2018-05-04T05:09:48.194Z,7.70
2018-05-04T05:12:15.673Z,8.47
2018-05-04T05:14:43.912Z,8.93
2018-05-04T05:17:11.383Z,8.60
2018-05-04T05:19:38.857Z,9.13
2018-05-04T05:22:07.097Z,9.63
2018-05-04T05:24:34.570Z,10.70
2018-05-04T05:27:02.043Z,9.30
2018-05-04T05:29:29.609Z,9.43
2018-05-04T05:31:57.756Z,8.37
2018-05-04T05:34:25.214Z,7.90
2018-05-04T05:36:52.689Z,8.67
2018-05-04T05:39:20.163Z,7.43
2018-05-04T05:41:48.405Z,7.20
2018-05-04T05:44:15.874Z,7.90
2018-05-04T05:46:43.350Z,7.00
2018-05-04T05:49:11.593Z,6.67
2018-05-04T05:51:39.075Z,6.67
2018-05-04T05:54:06.545Z,6.13
2018-05-04T05:56:34.789Z,6.07
2018-05-04T05:59:02.254Z,5.77
2018-05-04T06:01:29.734Z,5.20
2018-05-04T06:03:58.489Z,5.30
2018-05-04T06:06:25.965Z,4.77
2018-05-04T06:08:53.425Z,5.30
2018-05-04T06:11:20.893Z,5.27
2018-05-04T06:13:49.125Z,5.07
2018-05-04T06:16:16.607Z,4.70
2018-05-04T06:18:44.072Z,4.60
2018-05-04T06:21:11.558Z,4.27
2018-05-04T06:23:39.791Z,4.00
2018-05-04T06:26:07.273Z,4.70
2018-05-04T06:28:34.751Z,4.03
2018-05-04T06:31:02.987Z,4.80
2018-05-04T06:33:30.471Z,3.40
2018-05-04T06:35:57.937Z,3.60
2018-05-04T06:38:26.176Z,4.00
2018-05-04T06:40:53.650Z,3.70
2018-05-04T06:43:22.257Z,3.90
2018-05-04T06:45:50.512Z,4.03
2018-05-04T06:48:17.973Z,5.87
2018-05-04T06:50:45.445Z,4.70
2018-05-04T06:53:12.940Z,4.10
2018-05-04T06:55:40.393Z,4.07
2018-05-04T06:58:07.881Z,5.10
2018-05-04T07:00:35.341Z,3.30
2018-05-04T07:03:03.591Z,3.43
2018-05-04T07:05:31.079Z,4.53
2018-05-04T07:07:58.545Z,3.20
2018-05-04T07:10:26.080Z,3.60
2018-05-04T07:12:53.533Z,3.53
2018-05-04T07:15:21.011Z,4.20
2018-05-04T07:17:48.497Z,5.07
2018-05-04T07:20:15.965Z,3.87
2018-05-04T07:22:43.438Z,3.27
2018-05-04T07:25:11.692Z,3.63
2018-05-04T07:27:39.186Z,4.20
2018-05-04T07:30:06.662Z,3.77
2018-05-04T07:32:34.133Z,3.97
2018-05-04T07:35:01.598Z,3.70
2018-05-04T07:37:29.853Z,3.23
2018-05-04T07:39:57.313Z,3.13
2018-05-04T07:42:24.789Z,2.97
2018-05-04T07:44:52.253Z,3.23
2018-05-04T07:47:19.723Z,3.20
2018-05-04T07:49:47.195Z,3.13
2018-05-04T07:52:14.665Z,2.50
2018-05-04T07:54:42.893Z,2.40
2018-05-04T07:57:10.374Z,3.10
2018-05-04T07:59:37.837Z,3.00
2018-05-04T08:02:05.323Z,2.43
2018-05-04T08:04:33.560Z,2.10
2018-05-04T08:07:01.021Z,2.43
2018-05-04T08:09:28.495Z,2.70
2018-05-04T08:11:55.961Z,2.13
2018-05-04T08:14:23.434Z,1.73
2018-05-04T08:16:51.677Z,2.00
2018-05-04T08:19:19.146Z,2.17
2018-05-04T08:21:46.633Z,2.30
2018-05-04T08:24:14.861Z,2.30
2018-05-04T08:26:42.372Z,2.57
2018-05-04T08:29:10.642Z,1.87
2018-05-04T08:31:38.077Z,2.30
2018-05-04T08:34:05.542Z,1.87
2018-05-04T08:36:33.013Z,2.07
2018-05-04T08:39:01.293Z,3.30
2018-05-04T08:41:28.737Z,2.97
2018-05-04T08:43:56.202Z,2.67
2018-05-04T08:46:23.682Z,2.13
2018-05-04T08:48:51.137Z,2.47
2018-05-04T08:51:18.624Z,2.93
2018-05-04T08:53:46.091Z,2.83
2018-05-04T08:56:13.590Z,2.80
2018-05-04T08:58:41.051Z,3.23
2018-05-04T09:01:08.507Z,2.70
2018-05-04T09:03:36.329Z,2.90
2018-05-04T09:06:03.789Z,3.23
2018-05-04T09:08:31.274Z,2.57
2018-05-04T09:10:58.738Z,3.17
2018-05-04T09:13:26.213Z,3.00
2018-05-04T09:15:54.451Z,3.57
2018-05-04T09:18:21.918Z,3.27
2018-05-04T09:20:49.382Z,3.03
2018-05-04T09:23:16.845Z,2.77
2018-05-04T09:25:45.814Z,3.20
2018-05-04T09:28:13.288Z,4.67
2018-05-04T09:30:41.239Z,3.67
2018-05-04T09:33:08.712Z,3.43
2018-05-04T09:35:36.179Z,3.83
2018-05-04T09:38:03.650Z,3.70
2018-05-04T09:40:31.115Z,3.53
2018-05-04T09:42:58.583Z,3.80
2018-05-04T09:45:26.810Z,3.57
2018-05-04T09:47:54.279Z,3.50
2018-05-04T09:50:21.745Z,3.50
2018-05-04T09:52:49.209Z,4.03
2018-05-04T09:55:16.670Z,3.40
2018-05-04T09:57:44.143Z,3.20
2018-05-04T10:00:11.729Z,3.97
2018-05-04T10:02:39.208Z,4.40
2018-05-04T10:05:06.670Z,3.73
2018-05-04T10:07:34.146Z,3.90
2018-05-04T10:10:02.528Z,4.23
2018-05-04T10:12:30.008Z,3.77
2018-05-04T10:14:57.461Z,4.00
2018-05-04T10:17:24.952Z,3.93
2018-05-04T10:19:53.199Z,3.80
2018-05-04T10:22:20.652Z,4.73
2018-05-04T10:24:48.137Z,5.23
2018-05-04T10:27:16.390Z,4.03
2018-05-04T10:29:43.876Z,5.37
2018-05-04T10:32:12.091Z,4.30
2018-05-04T10:34:39.556Z,4.90
2018-05-04T10:37:07.034Z,4.93
2018-05-04T10:39:34.507Z,4.47
2018-05-04T10:42:01.964Z,4.63
2018-05-04T10:44:29.441Z,4.60
2018-05-04T10:46:57.669Z,4.20
2018-05-04T10:49:25.153Z,5.20
2018-05-04T10:51:52.615Z,4.17
2018-05-04T10:54:20.089Z,3.53
2018-05-04T10:56:48.326Z,4.90
2018-05-04T10:59:15.792Z,4.20
2018-05-04T11:01:43.253Z,4.10
2018-05-04T11:04:10.725Z,4.97
2018-05-04T11:06:38.194Z,4.63
2018-05-04T11:09:05.669Z,3.87
2018-05-04T11:11:33.901Z,4.73
2018-05-04T11:14:01.377Z,5.10
2018-05-04T11:16:28.837Z,5.47
2018-05-04T11:18:56.318Z,5.67
2018-05-04T11:21:24.549Z,4.80
2018-05-04T11:23:52.022Z,4.33
2018-05-04T11:26:19.533Z,4.77
2018-05-04T11:28:47.009Z,4.00
2018-05-04T11:31:14.489Z,4.20
2018-05-04T11:33:41.964Z,4.83
2018-05-04T11:36:09.424Z,5.20
2018-05-04T11:38:36.906Z,4.13
2018-05-04T11:41:05.135Z,3.57
2018-05-04T11:43:32.662Z,5.43
2018-05-04T11:46:00.131Z,4.70
2018-05-04T11:48:27.601Z,4.63
2018-05-04T11:50:55.070Z,4.50
2018-05-04T11:53:22.537Z,4.30
2018-05-04T11:55:50.014Z,4.13
2018-05-04T11:58:17.483Z,4.90
2018-05-04T12:00:44.977Z,5.30
2018-05-04T12:03:12.451Z,4.20
2018-05-04T12:05:39.910Z,4.57
2018-05-04T12:08:07.378Z,4.20
2018-05-04T12:10:34.853Z,3.53
2018-05-04T12:13:02.325Z,3.27
2018-05-04T12:15:29.791Z,4.50
2018-05-04T12:17:57.270Z,4.03
2018-05-04T12:20:25.495Z,4.60
2018-05-04T12:22:53.005Z,3.37
2018-05-04T12:25:20.435Z,3.80
2018-05-04T12:27:47.898Z,4.33
2018-05-04T12:30:15.370Z,6.07
2018-05-04T12:32:43.608Z,4.60
2018-05-04T12:35:11.089Z,4.50
2018-05-04T12:37:38.562Z,3.83
2018-05-04T12:40:06.809Z,4.13
2018-05-04T12:42:34.273Z,4.37
2018-05-04T12:45:02.101Z,3.80
2018-05-04T12:47:29.562Z,5.10
2018-05-04T12:49:57.033Z,4.80
2018-05-04T12:52:25.309Z,4.73
2018-05-04T12:54:52.780Z,4.57
2018-05-04T12:57:20.282Z,4.47
2018-05-04T12:59:48.518Z,5.30
2018-05-04T13:02:15.981Z,4.47
2018-05-04T13:04:43.479Z,4.30
2018-05-04T13:07:11.708Z,5.60
2018-05-04T13:09:39.181Z,5.07
2018-05-04T13:12:06.649Z,5.00
2018-05-04T13:14:34.126Z,5.47
2018-05-04T13:17:02.368Z,5.20
2018-05-04T13:19:29.835Z,4.60
2018-05-04T13:21:57.544Z,5.30
2018-05-04T13:24:25.061Z,6.20
2018-05-04T13:26:52.529Z,5.10
2018-05-04T13:29:19.998Z,5.23
2018-05-04T13:31:48.240Z,5.03
2018-05-04T13:34:15.715Z,5.20
2018-05-04T13:36:43.181Z,5.50
2018-05-04T13:39:10.647Z,4.97
2018-05-04T13:41:38.888Z,5.17
2018-05-04T13:44:06.388Z,5.17
2018-05-04T13:46:34.614Z,4.70
2018-05-04T13:49:02.092Z,4.90
2018-05-04T13:51:29.613Z,4.90
2018-05-04T13:53:57.051Z,5.20
2018-05-04T13:56:25.296Z,4.67
2018-05-04T13:58:52.767Z,4.90
2018-05-04T14:01:20.244Z,4.70
2018-05-04T14:03:48.502Z,4.20
2018-05-04T14:06:15.957Z,4.63
2018-05-04T14:08:43.438Z,4.30
2018-05-04T14:11:11.661Z,5.10
2018-05-04T14:13:39.129Z,5.20
2018-05-04T14:16:06.587Z,4.37
2018-05-04T14:18:34.081Z,5.10
2018-05-04T14:21:02.312Z,5.40
2018-05-04T14:23:29.776Z,4.63
2018-05-04T14:25:57.267Z,4.40
2018-05-04T14:28:24.725Z,4.80
2018-05-04T14:30:52.205Z,6.77
2018-05-04T14:33:20.438Z,5.27
2018-05-04T14:35:47.917Z,4.33
2018-05-04T14:38:15.383Z,4.30
2018-05-04T14:40:43.614Z,5.27
2018-05-04T14:43:11.076Z,4.77
2018-05-04T14:45:38.565Z,5.30
2018-05-04T14:48:06.029Z,4.57
2018-05-04T14:50:33.501Z,5.30
2018-05-04T14:53:01.734Z,6.37
2018-05-04T14:55:29.206Z,4.60
2018-05-04T14:57:56.669Z,4.60
2018-05-04T15:00:24.441Z,5.70
2018-05-04T15:02:52.748Z,5.07
2018-05-04T15:05:20.986Z,4.40
2018-05-04T15:07:49.422Z,7.57
2018-05-04T15:10:16.896Z,4.17
2018-05-04T15:12:44.358Z,3.83
2018-05-04T15:15:11.859Z,4.60
2018-05-04T15:17:39.322Z,4.93
2018-05-04T15:20:07.565Z,4.70
2018-05-04T15:22:35.026Z,3.87
2018-05-04T15:25:02.556Z,4.50
2018-05-04T15:27:29.975Z,4.50
2018-05-04T15:29:58.222Z,3.97
2018-05-04T15:32:25.691Z,4.60
2018-05-04T15:34:53.165Z,4.70
2018-05-04T15:37:20.631Z,4.57
2018-05-04T15:39:48.933Z,4.17
2018-05-04T15:42:22.189Z,4.07
2018-05-04T15:44:50.001Z,4.10
2018-05-04T15:47:17.478Z,4.30
2018-05-04T15:49:44.954Z,3.83
2018-05-04T15:52:12.422Z,3.63
2018-05-04T15:54:39.974Z,3.20
2018-05-04T15:57:07.358Z,4.30
2018-05-04T15:59:35.599Z,3.60
2018-05-04T16:02:03.777Z,3.30
2018-05-04T16:04:31.249Z,3.30
2018-05-04T16:06:58.721Z,3.53
2018-05-04T16:09:26.194Z,3.47
2018-05-04T16:11:54.423Z,3.30
2018-05-04T16:14:21.887Z,3.17
2018-05-04T16:16:49.367Z,3.40
2018-05-04T16:19:16.845Z,3.57
2018-05-04T16:21:45.095Z,3.70
2018-05-04T16:24:12.553Z,3.20
2018-05-04T16:26:40.027Z,2.87
2018-05-04T16:29:07.506Z,2.50
2018-05-04T16:31:35.751Z,3.73
2018-05-04T16:34:03.218Z,2.77
2018-05-04T16:36:30.693Z,3.10
2018-05-04T16:38:58.940Z,3.00
2018-05-04T16:41:26.447Z,2.70
2018-05-04T16:43:53.922Z,2.83
2018-05-04T16:46:27.033Z,3.37
2018-05-04T16:49:00.076Z,2.63
2018-05-04T16:51:28.305Z,2.90
2018-05-04T16:53:55.792Z,2.70
2018-05-04T16:56:24.034Z,3.03
2018-05-04T16:58:51.494Z,3.90
2018-05-04T17:01:18.965Z,3.60
2018-05-04T17:03:46.433Z,3.00
2018-05-04T17:06:13.910Z,2.73
2018-05-04T17:08:42.143Z,3.07
2018-05-04T17:11:09.620Z,2.50
2018-05-04T17:13:37.094Z,2.97
2018-05-04T17:16:04.564Z,2.83
2018-05-04T17:18:32.794Z,2.30
2018-05-04T17:21:00.270Z,2.63
2018-05-04T17:23:27.739Z,2.70
2018-05-04T17:25:55.254Z,3.07
2018-05-04T17:28:22.714Z,2.87
2018-05-04T17:30:50.197Z,2.93
2018-05-04T17:33:17.677Z,3.47
2018-05-04T17:35:45.853Z,2.60
2018-05-04T17:38:13.317Z,2.00
2018-05-04T17:40:41.564Z,2.40
2018-05-04T17:43:09.045Z,3.37
2018-05-04T17:45:36.521Z,2.40
2018-05-04T17:48:04.749Z,2.13
2018-05-04T17:50:32.225Z,2.23
2018-05-04T17:52:59.688Z,2.10
2018-05-04T17:55:27.169Z,2.23
2018-05-04T17:57:55.410Z,2.93
2018-05-04T18:00:22.882Z,2.60
2018-05-04T18:02:50.346Z,2.73
2018-05-04T18:05:17.811Z,3.90
2018-05-04T18:07:45.270Z,2.23
2018-05-04T18:10:12.902Z,2.57
2018-05-04T18:12:41.083Z,3.00
2018-05-04T18:15:08.554Z,3.77
2018-05-04T18:17:36.029Z,2.00
2018-05-04T18:20:03.498Z,2.20
2018-05-04T18:22:31.753Z,2.70
2018-05-04T18:24:59.321Z,2.97
2018-05-04T18:27:27.574Z,3.50
2018-05-04T18:29:55.043Z,3.20
2018-05-04T18:32:22.496Z,2.00
2018-05-04T18:34:49.971Z,2.97
2018-05-04T18:37:17.439Z,2.30
2018-05-04T18:39:45.743Z,2.20
2018-05-04T18:42:13.225Z,3.00
2018-05-04T18:44:40.693Z,2.00
2018-05-04T18:47:08.165Z,2.37
2018-05-04T18:49:35.634Z,2.90
2018-05-04T18:52:03.101Z,2.10
2018-05-04T18:54:30.586Z,2.20
2018-05-04T18:56:58.056Z,2.47
2018-05-04T18:59:25.518Z,2.60
2018-05-04T19:01:52.984Z,2.67
2018-05-04T19:04:20.453Z,2.53
2018-05-04T19:06:47.978Z,2.60
2018-05-04T19:09:15.449Z,3.30
2018-05-04T19:11:42.926Z,2.57
2018-05-04T19:14:10.405Z,3.03
2018-05-04T19:16:38.661Z,2.80
2018-05-04T19:19:06.120Z,3.43
2018-05-04T19:21:33.593Z,2.40
2018-05-04T19:24:01.063Z,2.37
2018-05-04T19:26:28.531Z,2.83
2018-05-04T19:28:55.994Z,3.33
2018-05-04T19:31:24.378Z,2.60
2018-05-04T19:33:51.838Z,2.80
2018-05-04T19:36:19.310Z,3.00
2018-05-04T19:38:47.539Z,3.33
2018-05-04T19:41:15.010Z,3.57
2018-05-04T19:43:42.482Z,2.93
2018-05-04T19:46:09.961Z,3.77
2018-05-04T19:48:38.191Z,3.50
2018-05-04T19:51:05.673Z,2.90
2018-05-04T19:53:33.133Z,3.37
2018-05-04T19:56:00.613Z,3.13
2018-05-04T19:58:28.848Z,2.77
2018-05-04T20:00:56.323Z,4.20
2018-05-04T20:03:23.793Z,4.07
2018-05-04T20:05:51.262Z,3.97
2018-05-04T20:08:19.493Z,3.40
2018-05-04T20:10:47.312Z,3.67
2018-05-04T20:13:15.550Z,2.80
2018-05-04T20:15:43.022Z,3.50
2018-05-04T20:20:45.189Z,3.87
2018-05-04T20:23:12.651Z,2.97
2018-05-04T20:25:40.125Z,3.43
2018-05-04T20:28:07.591Z,3.30
2018-05-04T20:30:35.065Z,2.90
2018-05-04T20:33:03.347Z,3.40
2018-05-04T20:35:30.775Z,3.93
2018-05-04T20:37:58.285Z,3.70
2018-05-04T20:40:25.778Z,3.80
2018-05-04T20:42:53.302Z,3.53
2018-05-04T20:45:20.765Z,2.90
2018-05-04T20:47:48.242Z,3.70
2018-05-04T20:50:15.705Z,3.00
2018-05-04T20:52:43.172Z,4.00
2018-05-04T20:55:10.638Z,2.97
2018-05-04T20:57:38.133Z,4.27
2018-05-04T21:00:05.606Z,2.87
2018-05-04T21:02:33.204Z,3.90
2018-05-04T21:05:00.669Z,3.33
2018-05-04T21:07:28.148Z,3.53
2018-05-04T21:09:55.612Z,3.27
2018-05-04T21:12:23.851Z,3.20
2018-05-04T21:14:51.310Z,3.37
2018-05-04T21:17:18.781Z,3.10
2018-05-04T21:19:46.246Z,3.90
2018-05-04T21:22:13.721Z,3.20
2018-05-04T21:24:41.961Z,3.47
2018-05-04T21:27:09.512Z,3.23
2018-05-04T21:29:36.919Z,3.47
2018-05-04T21:32:05.159Z,3.10
2018-05-04T21:34:32.616Z,3.43
2018-05-04T21:37:00.097Z,3.93
2018-05-04T21:39:27.569Z,3.83
2018-05-04T21:41:55.813Z,4.20
2018-05-04T21:44:23.281Z,3.80
2018-05-04T21:46:50.781Z,4.57
2018-05-04T21:49:18.241Z,3.87
2018-05-04T21:51:45.861Z,4.03
2018-05-04T21:54:13.274Z,4.40
2018-05-04T21:56:40.736Z,4.20
2018-05-04T21:59:08.231Z,4.20
2018-05-04T22:01:35.714Z,4.00
2018-05-04T22:04:03.953Z,4.00
2018-05-04T22:06:31.454Z,4.77
2018-05-04T22:08:58.901Z,3.90
2018-05-04T22:11:27.145Z,4.60
2018-05-04T22:13:54.618Z,4.50
2018-05-04T22:16:22.090Z,4.67
2018-05-04T22:18:50.421Z,4.03
2018-05-04T22:21:17.912Z,4.40
2018-05-04T22:23:45.402Z,4.30
2018-05-04T22:26:13.625Z,4.43
2018-05-04T22:28:41.102Z,3.83
2018-05-04T22:31:08.582Z,4.77
2018-05-04T22:33:36.821Z,4.10
2018-05-04T22:36:05.070Z,4.03
2018-05-04T22:38:32.541Z,4.33
2018-05-04T22:41:00.015Z,4.30
2018-05-04T22:43:27.497Z,3.90
2018-05-04T22:45:54.964Z,4.23
2018-05-04T22:48:22.432Z,4.53
2018-05-04T22:50:50.713Z,4.90
2018-05-04T22:53:18.955Z,5.00
2018-05-04T22:55:46.422Z,3.77
2018-05-04T22:58:13.896Z,5.13
2018-05-04T23:00:41.357Z,5.60
2018-05-04T23:03:09.606Z,5.03
2018-05-04T23:05:37.074Z,5.67
2018-05-04T23:08:04.549Z,5.20
2018-05-04T23:10:32.792Z,6.13
2018-05-04T23:13:00.270Z,4.40
2018-05-04T23:15:27.739Z,5.63
2018-05-04T23:17:55.204Z,4.60
2018-05-04T23:20:23.441Z,4.80
2018-05-04T23:22:51.009Z,5.00
2018-05-04T23:25:18.469Z,4.30
2018-05-04T23:27:45.945Z,4.60
2018-05-04T23:30:13.413Z,4.57
2018-05-04T23:32:41.661Z,4.60
2018-05-04T23:35:09.113Z,4.30
2018-05-04T23:37:36.593Z,5.53
2018-05-04T23:40:04.051Z,4.50
2018-05-04T23:42:31.558Z,4.60
2018-05-04T23:44:59.017Z,4.60
2018-05-04T23:47:26.498Z,3.90
2018-05-04T23:49:53.958Z,4.10
2018-05-04T23:52:21.435Z,5.10
2018-05-04T23:54:48.895Z,4.87
2018-05-04T23:57:16.362Z,4.17
2018-05-04T23:59:43.822Z,4.37
